Flight Track Log - Related Links

Times and Time Zones

All times are in EDT time to prevent confusion due to time zone crossing. See the N100PM flight status page for this flight to view local times or setup timezone preferences in your user account.

Time Position Orientation Groundspeed Altitude Reporting Facility
EDT Latitude Longitude Course Direction KTS MPH feet Rate Location/Type
Sat 07:30:22 AM 34.1833 -118.4667 59° Northeast 78 90 2,100  Level Southern California TRACON
Sat 07:31:16 AM 34.1833 -118.4667 59° Northeast 92 106 2,800 684 Climbing Southern California TRACON
Sat 07:32:16 AM 34.1833 -118.4833 270° West 95 109 3,400 571 Climbing Southern California TRACON
Sat 07:33:22 AM 34.1667 -118.4667 140° Southeast 79 91 4,000 476 Climbing Southern California TRACON
Sat 07:34:22 AM 34.1833 -118.4500 40° Northeast 88 101 4,400 400 Climbing Southern California TRACON
Sat 07:35:00 AM 34.2491 -118.3336 59° Northeast  Level Estimated
Sat 07:35:22 AM 34.2167 -118.4500 360° North 86 99 4,800  Level Southern California TRACON
Sat 07:36:22 AM 34.2333 -118.4500 360° North 89 102 5,300 500 Climbing Southern California TRACON
Sat 07:37:22 AM 34.2667 -118.4667 338° Northwest 90 104 5,800 462 Climbing Southern California TRACON
Sat 07:39:11 AM 34.2989 -118.4383 36° Northeast 93 107 6,600 424 Climbing Los Angeles Center
Sat 07:40:12 AM 34.3183 -118.4172 42° Northeast 94 108 7,000 397 Climbing Los Angeles Center
Sat 07:41:12 AM 34.3375 -118.3967 42° Northeast 92 106 7,400 400 Climbing Los Angeles Center
Sat 07:42:12 AM 34.3578 -118.3742 42° Northeast 96 110 7,800 450 Climbing Los Angeles Center
Sat 07:43:12 AM 34.3769 -118.3522 43° Northeast 96 110 8,300 450 Climbing Los Angeles Center
Sat 07:44:12 AM 34.3919 -118.3267 55° Northeast 94 108 8,700 350 Climbing Los Angeles Center
Sat 07:45:12 AM 34.3967 -118.2967 79° East 92 106 9,000 200 Climbing Los Angeles Center
Sat 07:46:12 AM 34.4019 -118.2661 78° East 95 109 9,100 50 Climbing Los Angeles Center
Sat 07:47:13 AM 34.4075 -118.2311 79° East 104 120 9,100 -50 Level Los Angeles Center
Sat 07:48:13 AM 34.4150 -118.1933 76° East 115 132 9,000  Descending Los Angeles Center
Sat 07:49:13 AM 34.4253 -118.1586 70° East 111 128 9,100 50 Climbing Los Angeles Center
Sat 07:50:13 AM 34.4411 -118.1244 61° Northeast 107 123 9,100  Level Los Angeles Center
Sat 07:51:13 AM 34.4472 -118.0911 77° East 102 117 9,100  Level Los Angeles Center
Sat 07:52:13 AM 34.4536 -118.0569 77° East 104 120 9,100  Level Los Angeles Center
Sat 07:53:13 AM 34.4614 -118.0233 74° East 105 121 9,100  Level Los Angeles Center
Sat 07:54:14 AM 34.4692 -117.9889 75° East 107 123 9,100  Level Los Angeles Center
Sat 07:55:14 AM 34.4772 -117.9539 74° East 108 124 9,100  Level Los Angeles Center
Sat 07:56:14 AM 34.4850 -117.9181 75° East 109 125 9,100 50 Level Los Angeles Center
Sat 07:57:14 AM 34.4933 -117.8828 74° East 110 127 9,200 50 Climbing Los Angeles Center
Sat 07:58:14 AM 34.4997 -117.8544 75° East 110 127 9,200 -50 Level Los Angeles Center
Sat 07:59:15 AM 34.5075 -117.8103 78° East 111 128 9,100 -50 Descending Los Angeles Center
Sat 08:00:15 AM 34.5150 -117.7722 77° East 113 130 9,100  Level Los Angeles Center
Sat 08:01:15 AM 34.5214 -117.7353 78° East 114 131 9,100 -50 Level Los Angeles Center
Sat 08:02:15 AM 34.5281 -117.6997 77° East 111 128 9,000 -50 Descending Los Angeles Center
Sat 08:03:15 AM 34.5353 -117.6647 76° East 109 125 9,000  Level Los Angeles Center
Sat 08:04:15 AM 34.5419 -117.6306 77° East 107 123 9,000  Level Los Angeles Center
Sat 08:05:16 AM 34.5500 -117.5956 74° East 107 123 9,000  Level Los Angeles Center
Sat 08:06:16 AM 34.5569 -117.5597 77° East 108 124 9,000  Level Los Angeles Center
Sat 08:07:16 AM 34.5647 -117.5244 75° East 109 125 9,000  Level Los Angeles Center
Sat 08:08:16 AM 34.5731 -117.4889 74° East 109 125 9,000  Level Los Angeles Center
Sat 08:09:16 AM 34.5825 -117.4539 72° East 109 125 9,000  Level Los Angeles Center
Sat 08:10:16 AM 34.5919 -117.4186 72° East 110 127 9,000  Level Los Angeles Center
Sat 08:11:17 AM 34.6000 -117.3844 74° East 109 125 9,000 50 Level Los Angeles Center
Sat 08:12:17 AM 34.6067 -117.3508 76° East 106 122 9,100 50 Climbing Los Angeles Center
Sat 08:13:17 AM 34.6128 -117.3175 77° East 104 120 9,100 -50 Level Los Angeles Center
Sat 08:14:17 AM 34.6183 -117.2839 79° East 103 119 9,000  Descending Los Angeles Center
Sat 08:15:17 AM 34.6247 -117.2514 77° East 101 116 9,100  Climbing Los Angeles Center
Sat 08:16:17 AM 34.6317 -117.2189 75° East 100 115 9,000 -50 Descending Los Angeles Center
Sat 08:17:17 AM 34.6389 -117.1867 75° East 100 115 9,000  Level Los Angeles Center
Sat 08:18:18 AM 34.6461 -117.1536 75° East 101 116 9,000 50 Level Los Angeles Center
Sat 08:19:18 AM 34.6528 -117.1206 76° East 101 116 9,100  Climbing Los Angeles Center
Sat 08:20:18 AM 34.6608 -117.0872 74° East 102 117 9,000 -50 Descending Los Angeles Center
Sat 08:21:18 AM 34.6683 -117.0539 75° East 102 117 9,000  Level Los Angeles Center
Sat 08:22:18 AM 34.6753 -117.0197 76° East 103 119 9,000  Level Los Angeles Center
Sat 08:23:18 AM 34.6828 -116.9872 74° East 102 117 9,000 50 Level Los Angeles Center
Sat 08:24:19 AM 34.6892 -116.9556 76° East 100 115 9,100 50 Climbing Los Angeles Center
Sat 08:25:19 AM 34.6961 -116.9222 76° East 100 115 9,100 -50 Level Los Angeles Center
Sat 08:26:19 AM 34.7061 -116.8800 74° East 104 120 9,000 -50 Descending Los Angeles Center
Sat 08:27:19 AM 34.7144 -116.8433 75° East 108 124 9,000  Level Los Angeles Center
Sat 08:28:19 AM 34.7214 -116.8103 76° East 107 123 9,000  Level Los Angeles Center
Sat 08:29:20 AM 34.7278 -116.7756 77° East 105 121 9,000  Level Los Angeles Center
Sat 08:30:20 AM 34.7358 -116.7419 74° East 104 120 9,000  Level Los Angeles Center
Sat 08:31:20 AM 34.7431 -116.7064 76° East 106 122 9,000  Level Los Angeles Center
Sat 08:32:20 AM 34.7522 -116.6711 72° East 108 124 9,000  Level Los Angeles Center
Sat 08:33:20 AM 34.7589 -116.6378 76° East 106 122 9,000  Level Los Angeles Center
Sat 08:34:21 AM 34.7658 -116.6036 76° East 105 121 9,000  Level Los Angeles Center
Sat 08:35:21 AM 34.7728 -116.5689 76° East 105 121 9,000  Level Los Angeles Center
Sat 08:36:21 AM 34.7803 -116.5347 75° East 105 121 9,000  Level Los Angeles Center
Sat 08:37:21 AM 34.7875 -116.5000 76° East 105 121 9,000  Level Los Angeles Center
Sat 08:38:46 AM 34.7969 -116.4589 74° East 105 121 9,000  Level Los Angeles Center
Sat 08:39:46 AM 34.8061 -116.4194 74° East 103 119 9,000  Level Los Angeles Center
Sat 08:40:46 AM 34.8161 -116.3869 69° East 102 117 9,000  Level Los Angeles Center
Sat 08:41:46 AM 34.8242 -116.3544 73° East 102 117 9,000  Level Los Angeles Center
Sat 08:42:47 AM 34.8319 -116.3206 74° East 103 119 9,000  Level Los Angeles Center
Sat 08:43:47 AM 34.8406 -116.2869 73° East 103 119 9,000  Level Los Angeles Center
Sat 08:44:47 AM 34.8494 -116.2536 72° East 104 120 9,000  Level Los Angeles Center
Sat 08:45:47 AM 34.8586 -116.2203 71° East 104 120 9,000  Level Los Angeles Center
Sat 08:46:48 AM 34.8686 -116.1867 70° East 104 120 9,000  Level Los Angeles Center
Sat 08:47:48 AM 34.8786 -116.1536 70° East 105 121 9,000  Level Los Angeles Center
Sat 08:48:48 AM 34.8869 -116.1208 73° East 104 120 9,000  Level Los Angeles Center
Sat 08:49:48 AM 34.8950 -116.0878 73° East 103 119 9,000  Level Los Angeles Center
Sat 08:50:49 AM 34.9039 -116.0544 72° East 103 119 9,000  Level Los Angeles Center
Sat 08:51:49 AM 34.9119 -116.0211 74° East 103 119 9,000  Level Los Angeles Center
Sat 08:52:49 AM 34.9200 -115.9864 74° East 105 121 9,000  Level Los Angeles Center
Sat 08:53:49 AM 34.9289 -115.9522 72° East 105 121 9,000  Level Los Angeles Center
Sat 08:54:50 AM 34.9383 -115.9175 72° East 106 122 9,000 50 Level Los Angeles Center
Sat 08:55:50 AM 34.9481 -115.8825 71° East 108 124 9,100 150 Climbing Los Angeles Center
Sat 08:56:50 AM 34.9558 -115.8489 74° East 106 122 9,300 200 Climbing Los Angeles Center
Sat 08:57:50 AM 34.9644 -115.8169 72° East 101 116 9,500 248 Climbing Los Angeles Center
Sat 08:58:51 AM 34.9722 -115.7847 74° East 99 114 9,800 248 Climbing Los Angeles Center
Sat 08:59:51 AM 34.9806 -115.7522 73° East 101 116 10,000 100 Climbing Los Angeles Center
Sat 09:00:51 AM 34.9903 -115.7169 71° East 106 122 10,000  Level Los Angeles Center
Sat 09:01:52 AM 35.0003 -115.6775 73° East 117 135 10,000  Level Los Angeles Center
Sat 09:02:52 AM 35.0117 -115.6361 71° East 117 135 10,000  Level Los Angeles Center
Sat 09:03:52 AM 35.0219 -115.5986 71° East 117 135 10,000  Level Los Angeles Center
Sat 09:04:53 AM 35.0303 -115.5622 74° East 116 133 10,000 50 Level Los Angeles Center
Sat 09:05:53 AM 35.0406 -115.5269 70° East 114 131 10,100 50 Climbing Los Angeles Center
Sat 09:06:53 AM 35.0500 -115.4917 72° East 112 129 10,100  Level Los Angeles Center
Sat 09:07:54 AM 35.0586 -115.4553 74° East 112 129 10,100  Level Los Angeles Center
Sat 09:08:54 AM 35.0672 -115.4200 73° East 111 128 10,100  Level Los Angeles Center
Sat 09:09:54 AM 35.0769 -115.3836 72° East 111 128 10,100  Level Los Angeles Center
Sat 09:10:55 AM 35.0856 -115.3467 74° East 112 129 10,100  Level Los Angeles Center
Sat 09:11:55 AM 35.0950 -115.3097 73° East 112 129 10,100  Level Los Angeles Center
Sat 09:12:56 AM 35.1042 -115.2728 73° East 113 130 10,100  Level Los Angeles Center
Sat 09:13:56 AM 35.1133 -115.2353 73° East 114 131 10,100  Level Los Angeles Center
Sat 09:14:57 AM 35.1231 -115.1983 72° East 114 131 10,100  Level Los Angeles Center
Sat 09:15:57 AM 35.1322 -115.1611 73° East 115 132 10,100  Level Los Angeles Center
Sat 09:16:58 AM 35.1411 -115.1236 74° East 114 131 10,100  Level Los Angeles Center
Sat 09:17:58 AM 35.1400 -115.0853 92° East 114 131 10,100  Level Los Angeles Center
Sat 09:18:59 AM 35.1433 -115.0478 84° East 113 130 10,100  Level Los Angeles Center
Sat 09:19:59 AM 35.1481 -115.0094 81° East 113 130 10,100  Level Los Angeles Center
Sat 09:21:00 AM 35.1536 -114.9633 82° East 113 130 10,100  Level Los Angeles Center
Sat 09:22:00 AM 35.1581 -114.9250 82° East 114 131 10,100  Level Los Angeles Center
Sat 09:23:01 AM 35.1622 -114.8858 83° East 115 132 10,100  Level Los Angeles Center
Sat 09:24:02 AM 35.1678 -114.8475 80° East 115 132 10,100  Level Los Angeles Center
Sat 09:25:02 AM 35.1725 -114.8083 82° East 115 132 10,100  Level Los Angeles Center
Sat 09:26:03 AM 35.1758 -114.7708 84° East 114 131 10,100  Level Los Angeles Center
Sat 09:27:04 AM 35.1794 -114.7361 83° East 111 128 10,100  Level Los Angeles Center
Sat 09:28:04 AM 35.1822 -114.7014 84° East 107 123 10,100  Level Los Angeles Center
Sat 09:29:05 AM 35.1861 -114.6656 82° East 106 122 10,100  Level Los Angeles Center
Sat 09:30:06 AM 35.1908 -114.6289 81° East 107 123 10,100  Level Los Angeles Center
Sat 09:31:10 AM 35.1936 -114.5933 85° East 107 123 10,100  Level Los Angeles Center
Sat 09:32:07 AM 35.1981 -114.5550 82° East 112 129 10,100  Level Los Angeles Center
Sat 09:33:08 AM 35.2017 -114.5147 84° East 117 135 10,100  Level Los Angeles Center
Sat 09:34:08 AM 35.2056 -114.4761 83° East 117 135 10,100  Level Los Angeles Center
Sat 09:35:09 AM 35.2103 -114.4361 82° East 118 136 10,100  Level Los Angeles Center
Sat 09:36:10 AM 35.2133 -114.3975 84° East 116 133 10,100  Level Los Angeles Center
Sat 09:37:10 AM 35.2175 -114.3569 83° East 118 136 10,100  Level Los Angeles Center
Sat 09:38:11 AM 35.2217 -114.3169 83° East 118 136 10,100  Level Los Angeles Center
Sat 09:39:12 AM 35.2261 -114.2775 82° East 118 136 10,100 -49 Level Los Angeles Center
Sat 09:40:13 AM 35.2294 -114.2378 84° East 118 136 10,000 -397 Descending Los Angeles Center
Sat 09:41:13 AM 35.2347 -114.1883 83° East 121 139 9,300 -700 Descending Los Angeles Center

Login

Don't have an account? Register now (free) for customized features, flight alerts, and more!